sensor_id;sensor_type;location;lat;lon;timestamp;P1;durP1;ratioP1;P2;durP2;ratioP2
11346;SDS011;5728;42.722;23.258;2023-03-23T00:01:24;20.03;;;12.97;;
11346;SDS011;5728;42.722;23.258;2023-03-23T00:03:55;21.37;;;13.00;;
11346;SDS011;5728;42.722;23.258;2023-03-23T00:06:25;19.57;;;13.03;;
11346;SDS011;5728;42.722;23.258;2023-03-23T00:08:58;22.53;;;12.63;;
11346;SDS011;5728;42.722;23.258;2023-03-23T00:11:27;19.33;;;13.00;;
11346;SDS011;5728;42.722;23.258;2023-03-23T00:13:56;19.57;;;12.47;;
11346;SDS011;5728;42.722;23.258;2023-03-23T00:16:26;17.60;;;12.80;;
11346;SDS011;5728;42.722;23.258;2023-03-23T00:18:56;19.57;;;12.40;;
11346;SDS011;5728;42.722;23.258;2023-03-23T00:21:26;20.33;;;13.10;;
11346;SDS011;5728;42.722;23.258;2023-03-23T00:24:00;23.33;;;12.33;;
11346;SDS011;5728;42.722;23.258;2023-03-23T00:26:28;22.17;;;12.47;;
11346;SDS011;5728;42.722;23.258;2023-03-23T00:28:58;18.97;;;12.97;;
11346;SDS011;5728;42.722;23.258;2023-03-23T00:31:26;17.90;;;11.77;;
11346;SDS011;5728;42.722;23.258;2023-03-23T00:33:56;18.17;;;12.57;;
11346;SDS011;5728;42.722;23.258;2023-03-23T00:36:27;19.17;;;12.60;;
11346;SDS011;5728;42.722;23.258;2023-03-23T00:38:54;20.17;;;13.50;;
11346;SDS011;5728;42.722;23.258;2023-03-23T00:41:24;17.57;;;12.63;;
11346;SDS011;5728;42.722;23.258;2023-03-23T00:43:53;17.03;;;12.57;;
11346;SDS011;5728;42.722;23.258;2023-03-23T00:46:20;22.47;;;13.27;;
11346;SDS011;5728;42.722;23.258;2023-03-23T00:48:47;20.03;;;13.80;;
11346;SDS011;5728;42.722;23.258;2023-03-23T00:51:15;24.47;;;16.47;;
11346;SDS011;5728;42.722;23.258;2023-03-23T00:53:44;23.03;;;15.93;;
11346;SDS011;5728;42.722;23.258;2023-03-23T00:56:11;26.00;;;16.20;;
11346;SDS011;5728;42.722;23.258;2023-03-23T00:58:39;28.33;;;17.20;;
11346;SDS011;5728;42.722;23.258;2023-03-23T01:01:06;32.77;;;19.37;;
11346;SDS011;5728;42.722;23.258;2023-03-23T01:03:33;35.43;;;20.53;;
11346;SDS011;5728;42.722;23.258;2023-03-23T01:06:03;29.30;;;21.50;;
11346;SDS011;5728;42.722;23.258;2023-03-23T01:08:33;36.83;;;23.20;;
11346;SDS011;5728;42.722;23.258;2023-03-23T01:11:03;34.93;;;21.97;;
11346;SDS011;5728;42.722;23.258;2023-03-23T01:13:31;34.77;;;21.93;;
11346;SDS011;5728;42.722;23.258;2023-03-23T01:15:59;37.40;;;22.03;;
11346;SDS011;5728;42.722;23.258;2023-03-23T01:18:26;35.40;;;19.53;;
11346;SDS011;5728;42.722;23.258;2023-03-23T01:20:52;26.73;;;16.90;;
11346;SDS011;5728;42.722;23.258;2023-03-23T01:23:19;33.50;;;19.57;;
11346;SDS011;5728;42.722;23.258;2023-03-23T01:25:46;33.67;;;19.60;;
11346;SDS011;5728;42.722;23.258;2023-03-23T01:28:15;30.03;;;18.07;;
11346;SDS011;5728;42.722;23.258;2023-03-23T01:30:41;30.40;;;17.47;;
11346;SDS011;5728;42.722;23.258;2023-03-23T01:33:08;27.60;;;18.40;;
11346;SDS011;5728;42.722;23.258;2023-03-23T01:35:37;33.63;;;21.40;;
11346;SDS011;5728;42.722;23.258;2023-03-23T01:38:04;31.87;;;19.73;;
11346;SDS011;5728;42.722;23.258;2023-03-23T01:40:31;37.10;;;21.10;;
11346;SDS011;5728;42.722;23.258;2023-03-23T01:42:58;41.57;;;22.87;;
11346;SDS011;5728;42.722;23.258;2023-03-23T01:45:30;35.90;;;22.23;;
11346;SDS011;5728;42.722;23.258;2023-03-23T01:48:01;36.13;;;22.27;;
11346;SDS011;5728;42.722;23.258;2023-03-23T01:50:34;37.30;;;20.80;;
11346;SDS011;5728;42.722;23.258;2023-03-23T01:53:06;36.43;;;22.33;;
11346;SDS011;5728;42.722;23.258;2023-03-23T01:55:36;30.97;;;19.63;;
11346;SDS011;5728;42.722;23.258;2023-03-23T01:58:06;28.17;;;18.47;;
11346;SDS011;5728;42.722;23.258;2023-03-23T02:00:36;30.47;;;18.23;;
11346;SDS011;5728;42.722;23.258;2023-03-23T02:03:05;35.40;;;19.43;;
11346;SDS011;5728;42.722;23.258;2023-03-23T02:05:36;30.87;;;19.33;;
11346;SDS011;5728;42.722;23.258;2023-03-23T02:08:05;32.23;;;18.93;;
11346;SDS011;5728;42.722;23.258;2023-03-23T02:10:34;33.20;;;19.23;;
11346;SDS011;5728;42.722;23.258;2023-03-23T02:13:02;31.73;;;19.60;;
11346;SDS011;5728;42.722;23.258;2023-03-23T02:15:32;27.07;;;18.23;;
11346;SDS011;5728;42.722;23.258;2023-03-23T02:18:12;30.47;;;18.93;;
11346;SDS011;5728;42.722;23.258;2023-03-23T02:20:51;29.67;;;18.53;;
11346;SDS011;5728;42.722;23.258;2023-03-23T02:23:51;29.97;;;18.77;;
11346;SDS011;5728;42.722;23.258;2023-03-23T02:26:50;27.97;;;17.13;;
11346;SDS011;5728;42.722;23.258;2023-03-23T02:32:04;28.90;;;16.10;;
11346;SDS011;5728;42.722;23.258;2023-03-23T02:34:40;32.83;;;18.33;;
11346;SDS011;5728;42.722;23.258;2023-03-23T02:37:09;37.77;;;21.50;;
11346;SDS011;5728;42.722;23.258;2023-03-23T02:39:41;35.07;;;20.33;;
11346;SDS011;5728;42.722;23.258;2023-03-23T02:42:12;34.80;;;20.07;;
11346;SDS011;5728;42.722;23.258;2023-03-23T02:44:43;33.50;;;20.40;;
11346;SDS011;5728;42.722;23.258;2023-03-23T02:47:13;31.77;;;20.10;;
11346;SDS011;5728;42.722;23.258;2023-03-23T02:49:45;33.63;;;20.73;;
11346;SDS011;5728;42.722;23.258;2023-03-23T02:52:17;36.60;;;21.13;;
11346;SDS011;5728;42.722;23.258;2023-03-23T02:54:48;36.87;;;21.47;;
11346;SDS011;5728;42.722;23.258;2023-03-23T02:57:17;34.80;;;21.10;;
11346;SDS011;5728;42.722;23.258;2023-03-23T02:59:45;35.10;;;20.23;;
11346;SDS011;5728;42.722;23.258;2023-03-23T03:02:12;28.17;;;18.77;;
11346;SDS011;5728;42.722;23.258;2023-03-23T03:04:46;31.43;;;18.33;;
11346;SDS011;5728;42.722;23.258;2023-03-23T03:07:36;32.33;;;18.47;;
11346;SDS011;5728;42.722;23.258;2023-03-23T03:10:14;32.47;;;18.07;;
11346;SDS011;5728;42.722;23.258;2023-03-23T03:12:51;27.97;;;18.00;;
11346;SDS011;5728;42.722;23.258;2023-03-23T03:15:24;27.53;;;18.07;;
11346;SDS011;5728;42.722;23.258;2023-03-23T03:17:57;29.93;;;18.73;;
11346;SDS011;5728;42.722;23.258;2023-03-23T03:20:30;29.97;;;19.03;;
11346;SDS011;5728;42.722;23.258;2023-03-23T03:22:58;29.43;;;19.00;;
11346;SDS011;5728;42.722;23.258;2023-03-23T03:25:27;30.23;;;20.43;;
11346;SDS011;5728;42.722;23.258;2023-03-23T03:27:54;33.47;;;18.57;;
11346;SDS011;5728;42.722;23.258;2023-03-23T03:30:24;29.07;;;18.67;;
11346;SDS011;5728;42.722;23.258;2023-03-23T03:32:55;30.57;;;18.20;;
11346;SDS011;5728;42.722;23.258;2023-03-23T03:35:25;29.73;;;18.77;;
11346;SDS011;5728;42.722;23.258;2023-03-23T03:37:54;27.60;;;18.47;;
11346;SDS011;5728;42.722;23.258;2023-03-23T03:40:22;33.77;;;20.53;;
11346;SDS011;5728;42.722;23.258;2023-03-23T03:42:50;36.40;;;21.67;;
11346;SDS011;5728;42.722;23.258;2023-03-23T03:45:18;30.97;;;21.23;;
11346;SDS011;5728;42.722;23.258;2023-03-23T03:47:45;33.60;;;20.93;;
11346;SDS011;5728;42.722;23.258;2023-03-23T03:50:13;46.77;;;21.27;;
11346;SDS011;5728;42.722;23.258;2023-03-23T03:52:41;30.90;;;18.63;;
11346;SDS011;5728;42.722;23.258;2023-03-23T03:55:10;34.83;;;18.93;;
11346;SDS011;5728;42.722;23.258;2023-03-23T03:57:37;32.63;;;19.17;;
11346;SDS011;5728;42.722;23.258;2023-03-23T04:00:05;28.53;;;17.93;;
11346;SDS011;5728;42.722;23.258;2023-03-23T04:02:39;27.27;;;17.73;;
11346;SDS011;5728;42.722;23.258;2023-03-23T04:05:12;32.83;;;17.87;;
11346;SDS011;5728;42.722;23.258;2023-03-23T04:07:39;25.00;;;16.10;;
11346;SDS011;5728;42.722;23.258;2023-03-23T04:10:07;26.80;;;17.27;;
11346;SDS011;5728;42.722;23.258;2023-03-23T04:12:38;26.07;;;17.60;;
11346;SDS011;5728;42.722;23.258;2023-03-23T04:15:06;25.67;;;16.97;;
11346;SDS011;5728;42.722;23.258;2023-03-23T04:17:34;28.73;;;17.37;;
11346;SDS011;5728;42.722;23.258;2023-03-23T04:20:02;26.93;;;17.40;;
11346;SDS011;5728;42.722;23.258;2023-03-23T04:22:41;23.77;;;15.77;;
11346;SDS011;5728;42.722;23.258;2023-03-23T04:25:10;32.70;;;19.40;;
11346;SDS011;5728;42.722;23.258;2023-03-23T04:27:39;36.13;;;18.93;;
11346;SDS011;5728;42.722;23.258;2023-03-23T04:30:08;33.40;;;19.67;;
11346;SDS011;5728;42.722;23.258;2023-03-23T04:32:37;25.50;;;17.20;;
11346;SDS011;5728;42.722;23.258;2023-03-23T04:35:07;31.80;;;18.50;;
11346;SDS011;5728;42.722;23.258;2023-03-23T04:37:36;27.43;;;16.67;;
11346;SDS011;5728;42.722;23.258;2023-03-23T04:40:04;26.53;;;17.17;;
11346;SDS011;5728;42.722;23.258;2023-03-23T04:42:36;31.73;;;17.70;;
11346;SDS011;5728;42.722;23.258;2023-03-23T04:45:05;30.93;;;18.40;;
11346;SDS011;5728;42.722;23.258;2023-03-23T04:47:34;24.73;;;17.00;;
11346;SDS011;5728;42.722;23.258;2023-03-23T04:50:06;27.03;;;18.13;;
11346;SDS011;5728;42.722;23.258;2023-03-23T04:52:33;26.30;;;16.63;;
11346;SDS011;5728;42.722;23.258;2023-03-23T04:55:02;27.53;;;18.40;;
11346;SDS011;5728;42.722;23.258;2023-03-23T04:57:30;42.37;;;23.77;;
11346;SDS011;5728;42.722;23.258;2023-03-23T04:59:59;37.17;;;23.77;;
11346;SDS011;5728;42.722;23.258;2023-03-23T05:02:26;46.87;;;33.83;;
11346;SDS011;5728;42.722;23.258;2023-03-23T05:04:55;57.23;;;38.60;;
11346;SDS011;5728;42.722;23.258;2023-03-23T05:07:22;52.77;;;36.80;;
11346;SDS011;5728;42.722;23.258;2023-03-23T05:09:49;40.20;;;30.10;;
11346;SDS011;5728;42.722;23.258;2023-03-23T05:12:16;36.67;;;26.10;;
11346;SDS011;5728;42.722;23.258;2023-03-23T05:14:43;38.73;;;26.93;;
11346;SDS011;5728;42.722;23.258;2023-03-23T05:17:11;38.33;;;25.20;;
11346;SDS011;5728;42.722;23.258;2023-03-23T05:19:43;36.20;;;23.23;;
11346;SDS011;5728;42.722;23.258;2023-03-23T05:22:12;29.90;;;19.67;;
11346;SDS011;5728;42.722;23.258;2023-03-23T05:24:39;24.23;;;17.27;;
11346;SDS011;5728;42.722;23.258;2023-03-23T05:27:07;29.87;;;19.77;;
11346;SDS011;5728;42.722;23.258;2023-03-23T05:29:34;28.07;;;16.23;;
11346;SDS011;5728;42.722;23.258;2023-03-23T05:32:02;26.13;;;17.60;;
11346;SDS011;5728;42.722;23.258;2023-03-23T05:34:31;24.97;;;15.60;;
11346;SDS011;5728;42.722;23.258;2023-03-23T05:36:58;26.23;;;16.73;;
11346;SDS011;5728;42.722;23.258;2023-03-23T05:39:25;29.77;;;18.50;;
11346;SDS011;5728;42.722;23.258;2023-03-23T05:41:52;30.27;;;17.90;;
11346;SDS011;5728;42.722;23.258;2023-03-23T05:44:19;30.80;;;16.57;;
11346;SDS011;5728;42.722;23.258;2023-03-23T05:46:46;24.60;;;16.20;;
11346;SDS011;5728;42.722;23.258;2023-03-23T05:49:13;31.53;;;17.23;;
11346;SDS011;5728;42.722;23.258;2023-03-23T05:51:43;37.33;;;18.63;;
11346;SDS011;5728;42.722;23.258;2023-03-23T05:54:11;28.20;;;17.80;;
11346;SDS011;5728;42.722;23.258;2023-03-23T05:56:39;30.37;;;17.87;;
11346;SDS011;5728;42.722;23.258;2023-03-23T05:59:06;29.37;;;17.07;;
11346;SDS011;5728;42.722;23.258;2023-03-23T06:01:33;29.93;;;17.50;;
11346;SDS011;5728;42.722;23.258;2023-03-23T06:04:00;30.27;;;19.17;;
11346;SDS011;5728;42.722;23.258;2023-03-23T06:06:27;30.97;;;19.93;;
11346;SDS011;5728;42.722;23.258;2023-03-23T06:08:55;30.97;;;18.97;;
11346;SDS011;5728;42.722;23.258;2023-03-23T06:11:22;30.70;;;20.43;;
11346;SDS011;5728;42.722;23.258;2023-03-23T06:13:51;30.33;;;19.87;;
11346;SDS011;5728;42.722;23.258;2023-03-23T06:16:17;30.63;;;19.73;;
11346;SDS011;5728;42.722;23.258;2023-03-23T06:18:45;30.60;;;19.33;;
11346;SDS011;5728;42.722;23.258;2023-03-23T06:21:13;33.23;;;20.30;;
11346;SDS011;5728;42.722;23.258;2023-03-23T06:23:40;28.77;;;18.60;;
11346;SDS011;5728;42.722;23.258;2023-03-23T06:26:09;32.17;;;20.27;;
11346;SDS011;5728;42.722;23.258;2023-03-23T06:28:39;34.93;;;20.20;;
11346;SDS011;5728;42.722;23.258;2023-03-23T06:31:06;30.63;;;19.87;;
11346;SDS011;5728;42.722;23.258;2023-03-23T06:33:33;27.17;;;18.13;;
11346;SDS011;5728;42.722;23.258;2023-03-23T06:36:01;31.63;;;19.00;;
11346;SDS011;5728;42.722;23.258;2023-03-23T06:38:28;27.27;;;19.23;;
11346;SDS011;5728;42.722;23.258;2023-03-23T06:40:55;31.97;;;19.20;;
11346;SDS011;5728;42.722;23.258;2023-03-23T06:43:24;29.67;;;19.33;;
11346;SDS011;5728;42.722;23.258;2023-03-23T06:45:51;24.87;;;17.33;;
11346;SDS011;5728;42.722;23.258;2023-03-23T06:48:18;27.67;;;16.60;;
11346;SDS011;5728;42.722;23.258;2023-03-23T06:50:45;30.47;;;20.27;;
11346;SDS011;5728;42.722;23.258;2023-03-23T06:53:12;29.13;;;18.93;;
11346;SDS011;5728;42.722;23.258;2023-03-23T06:55:39;29.27;;;20.33;;
11346;SDS011;5728;42.722;23.258;2023-03-23T06:58:08;36.30;;;19.30;;
11346;SDS011;5728;42.722;23.258;2023-03-23T07:00:36;26.37;;;18.33;;
11346;SDS011;5728;42.722;23.258;2023-03-23T07:03:03;33.33;;;19.20;;
11346;SDS011;5728;42.722;23.258;2023-03-23T07:05:31;32.67;;;17.83;;
11346;SDS011;5728;42.722;23.258;2023-03-23T07:07:59;28.87;;;17.87;;
11346;SDS011;5728;42.722;23.258;2023-03-23T07:10:26;24.93;;;16.77;;
11346;SDS011;5728;42.722;23.258;2023-03-23T07:12:53;28.40;;;16.87;;
11346;SDS011;5728;42.722;23.258;2023-03-23T07:15:20;25.90;;;15.50;;
11346;SDS011;5728;42.722;23.258;2023-03-23T07:17:48;22.80;;;15.47;;
11346;SDS011;5728;42.722;23.258;2023-03-23T07:20:15;29.07;;;15.57;;
11346;SDS011;5728;42.722;23.258;2023-03-23T07:22:42;28.00;;;15.83;;
11346;SDS011;5728;42.722;23.258;2023-03-23T07:25:09;21.50;;;15.63;;
11346;SDS011;5728;42.722;23.258;2023-03-23T07:27:36;23.47;;;15.07;;
11346;SDS011;5728;42.722;23.258;2023-03-23T07:30:04;26.70;;;14.43;;
11346;SDS011;5728;42.722;23.258;2023-03-23T07:32:32;24.07;;;15.30;;
11346;SDS011;5728;42.722;23.258;2023-03-23T07:35:01;27.07;;;15.50;;
11346;SDS011;5728;42.722;23.258;2023-03-23T07:37:28;29.60;;;16.43;;
11346;SDS011;5728;42.722;23.258;2023-03-23T07:39:57;19.23;;;14.27;;
11346;SDS011;5728;42.722;23.258;2023-03-23T07:42:24;21.53;;;14.20;;
11346;SDS011;5728;42.722;23.258;2023-03-23T07:44:51;25.87;;;14.27;;
11346;SDS011;5728;42.722;23.258;2023-03-23T07:47:18;23.20;;;14.77;;
11346;SDS011;5728;42.722;23.258;2023-03-23T07:49:44;29.53;;;15.47;;
11346;SDS011;5728;42.722;23.258;2023-03-23T07:52:13;20.37;;;13.53;;
11346;SDS011;5728;42.722;23.258;2023-03-23T07:54:39;21.23;;;14.07;;
11346;SDS011;5728;42.722;23.258;2023-03-23T07:57:06;25.30;;;14.00;;
11346;SDS011;5728;42.722;23.258;2023-03-23T07:59:33;21.37;;;14.80;;
11346;SDS011;5728;42.722;23.258;2023-03-23T08:02:00;23.60;;;14.50;;
11346;SDS011;5728;42.722;23.258;2023-03-23T08:04:27;21.93;;;14.37;;
11346;SDS011;5728;42.722;23.258;2023-03-23T08:06:54;23.37;;;16.27;;
11346;SDS011;5728;42.722;23.258;2023-03-23T08:09:22;24.80;;;14.47;;
11346;SDS011;5728;42.722;23.258;2023-03-23T08:11:49;28.03;;;16.20;;
11346;SDS011;5728;42.722;23.258;2023-03-23T08:14:17;23.17;;;15.93;;
11346;SDS011;5728;42.722;23.258;2023-03-23T08:16:43;21.67;;;15.77;;
11346;SDS011;5728;42.722;23.258;2023-03-23T08:19:11;23.52;;;16.23;;
11346;SDS011;5728;42.722;23.258;2023-03-23T08:21:38;22.07;;;16.33;;
11346;SDS011;5728;42.722;23.258;2023-03-23T08:24:05;26.48;;;16.52;;
11346;SDS011;5728;42.722;23.258;2023-03-23T08:26:34;28.43;;;16.80;;
11346;SDS011;5728;42.722;23.258;2023-03-23T08:29:01;26.23;;;17.33;;
11346;SDS011;5728;42.722;23.258;2023-03-23T08:31:28;34.78;;;18.45;;
11346;SDS011;5728;42.722;23.258;2023-03-23T08:33:55;25.58;;;17.40;;
11346;SDS011;5728;42.722;23.258;2023-03-23T08:36:22;23.73;;;16.48;;
11346;SDS011;5728;42.722;23.258;2023-03-23T08:38:49;25.08;;;14.27;;
11346;SDS011;5728;42.722;23.258;2023-03-23T08:41:17;24.00;;;13.45;;
11346;SDS011;5728;42.722;23.258;2023-03-23T08:43:45;29.23;;;13.85;;
11346;SDS011;5728;42.722;23.258;2023-03-23T08:46:12;21.90;;;14.38;;
11346;SDS011;5728;42.722;23.258;2023-03-23T08:48:39;22.92;;;14.45;;
11346;SDS011;5728;42.722;23.258;2023-03-23T08:51:06;19.63;;;11.68;;
11346;SDS011;5728;42.722;23.258;2023-03-23T08:53:33;17.30;;;9.88;;
11346;SDS011;5728;42.722;23.258;2023-03-23T08:56:05;10.55;;;7.35;;
11346;SDS011;5728;42.722;23.258;2023-03-23T08:58:33;10.73;;;7.95;;
11346;SDS011;5728;42.722;23.258;2023-03-23T09:01:01;9.52;;;5.75;;
11346;SDS011;5728;42.722;23.258;2023-03-23T09:03:28;6.70;;;5.88;;
11346;SDS011;5728;42.722;23.258;2023-03-23T09:05:58;7.57;;;6.10;;
11346;SDS011;5728;42.722;23.258;2023-03-23T09:08:26;9.30;;;7.00;;
11346;SDS011;5728;42.722;23.258;2023-03-23T09:10:54;9.77;;;7.97;;
11346;SDS011;5728;42.722;23.258;2023-03-23T09:13:21;13.18;;;7.72;;
11346;SDS011;5728;42.722;23.258;2023-03-23T09:15:48;8.95;;;7.00;;
11346;SDS011;5728;42.722;23.258;2023-03-23T09:18:17;9.00;;;6.90;;
11346;SDS011;5728;42.722;23.258;2023-03-23T09:20:44;9.50;;;7.45;;
11346;SDS011;5728;42.722;23.258;2023-03-23T09:23:12;9.43;;;6.78;;
11346;SDS011;5728;42.722;23.258;2023-03-23T09:25:40;11.80;;;7.72;;
11346;SDS011;5728;42.722;23.258;2023-03-23T09:28:07;10.60;;;8.00;;
11346;SDS011;5728;42.722;23.258;2023-03-23T09:30:34;10.27;;;7.57;;
11346;SDS011;5728;42.722;23.258;2023-03-23T09:33:02;14.00;;;8.65;;
11346;SDS011;5728;42.722;23.258;2023-03-23T09:35:32;14.45;;;7.05;;
11346;SDS011;5728;42.722;23.258;2023-03-23T09:38:01;13.20;;;7.10;;
11346;SDS011;5728;42.722;23.258;2023-03-23T09:40:29;8.95;;;6.60;;
11346;SDS011;5728;42.722;23.258;2023-03-23T09:43:06;8.70;;;6.70;;
11346;SDS011;5728;42.722;23.258;2023-03-23T09:45:47;9.73;;;6.30;;
11346;SDS011;5728;42.722;23.258;2023-03-23T09:51:14;9.25;;;7.15;;
11346;SDS011;5728;42.722;23.258;2023-03-23T09:53:48;7.57;;;5.90;;
11346;SDS011;5728;42.722;23.258;2023-03-23T09:56:19;9.18;;;6.28;;
11346;SDS011;5728;42.722;23.258;2023-03-23T09:58:49;8.20;;;6.57;;
11346;SDS011;5728;42.722;23.258;2023-03-23T10:01:20;7.78;;;6.70;;
11346;SDS011;5728;42.722;23.258;2023-03-23T10:03:52;8.98;;;7.10;;
11346;SDS011;5728;42.722;23.258;2023-03-23T10:06:28;11.05;;;7.22;;
11346;SDS011;5728;42.722;23.258;2023-03-23T10:08:56;9.90;;;6.53;;
11346;SDS011;5728;42.722;23.258;2023-03-23T10:11:28;10.07;;;6.90;;
11346;SDS011;5728;42.722;23.258;2023-03-23T10:17:00;8.25;;;6.45;;
11346;SDS011;5728;42.722;23.258;2023-03-23T10:19:36;7.15;;;6.32;;
11346;SDS011;5728;42.722;23.258;2023-03-23T10:22:10;10.60;;;5.95;;
11346;SDS011;5728;42.722;23.258;2023-03-23T10:24:40;10.45;;;6.05;;
11346;SDS011;5728;42.722;23.258;2023-03-23T10:27:16;8.52;;;5.85;;
11346;SDS011;5728;42.722;23.258;2023-03-23T10:29:50;7.03;;;5.57;;
11346;SDS011;5728;42.722;23.258;2023-03-23T10:32:34;7.82;;;4.95;;
11346;SDS011;5728;42.722;23.258;2023-03-23T10:35:09;7.70;;;5.80;;
11346;SDS011;5728;42.722;23.258;2023-03-23T10:37:42;11.00;;;6.00;;
11346;SDS011;5728;42.722;23.258;2023-03-23T10:40:14;8.43;;;4.90;;
11346;SDS011;5728;42.722;23.258;2023-03-23T10:42:43;10.52;;;5.38;;
11346;SDS011;5728;42.722;23.258;2023-03-23T10:45:12;10.25;;;5.78;;
11346;SDS011;5728;42.722;23.258;2023-03-23T10:47:46;9.07;;;5.43;;
11346;SDS011;5728;42.722;23.258;2023-03-23T10:50:29;8.20;;;5.95;;
11346;SDS011;5728;42.722;23.258;2023-03-23T10:53:00;7.10;;;5.57;;
11346;SDS011;5728;42.722;23.258;2023-03-23T10:55:37;7.15;;;5.53;;
11346;SDS011;5728;42.722;23.258;2023-03-23T10:58:05;6.45;;;5.47;;
11346;SDS011;5728;42.722;23.258;2023-03-23T11:00:39;7.57;;;5.00;;
11346;SDS011;5728;42.722;23.258;2023-03-23T11:03:20;7.82;;;6.43;;
11346;SDS011;5728;42.722;23.258;2023-03-23T11:05:54;8.13;;;6.95;;
11346;SDS011;5728;42.722;23.258;2023-03-23T11:08:25;7.05;;;5.60;;
11346;SDS011;5728;42.722;23.258;2023-03-23T11:10:55;8.00;;;5.18;;
11346;SDS011;5728;42.722;23.258;2023-03-23T11:13:27;6.28;;;5.15;;
11346;SDS011;5728;42.722;23.258;2023-03-23T11:15:55;10.82;;;6.15;;
11346;SDS011;5728;42.722;23.258;2023-03-23T11:18:24;8.77;;;6.28;;
11346;SDS011;5728;42.722;23.258;2023-03-23T11:20:54;7.22;;;6.10;;
11346;SDS011;5728;42.722;23.258;2023-03-23T11:23:28;8.82;;;5.43;;
11346;SDS011;5728;42.722;23.258;2023-03-23T11:25:58;6.68;;;5.20;;
11346;SDS011;5728;42.722;23.258;2023-03-23T11:28:36;10.48;;;6.35;;
11346;SDS011;5728;42.722;23.258;2023-03-23T11:31:09;7.47;;;5.72;;
11346;SDS011;5728;42.722;23.258;2023-03-23T11:33:46;7.63;;;6.18;;
11346;SDS011;5728;42.722;23.258;2023-03-23T11:36:17;10.70;;;6.07;;
11346;SDS011;5728;42.722;23.258;2023-03-23T11:38:46;8.57;;;5.70;;
11346;SDS011;5728;42.722;23.258;2023-03-23T11:41:17;8.63;;;5.65;;
11346;SDS011;5728;42.722;23.258;2023-03-23T11:43:46;8.63;;;5.85;;
11346;SDS011;5728;42.722;23.258;2023-03-23T11:46:16;6.85;;;5.60;;
11346;SDS011;5728;42.722;23.258;2023-03-23T11:48:54;9.13;;;5.45;;
11346;SDS011;5728;42.722;23.258;2023-03-23T11:51:26;8.75;;;6.32;;
11346;SDS011;5728;42.722;23.258;2023-03-23T11:54:00;8.00;;;5.85;;
11346;SDS011;5728;42.722;23.258;2023-03-23T11:56:33;7.40;;;5.50;;
11346;SDS011;5728;42.722;23.258;2023-03-23T11:59:01;7.95;;;6.00;;
11346;SDS011;5728;42.722;23.258;2023-03-23T12:07:41;9.65;;;6.10;;
11346;SDS011;5728;42.722;23.258;2023-03-23T12:10:26;7.55;;;4.93;;
11346;SDS011;5728;42.722;23.258;2023-03-23T12:13:08;6.93;;;5.78;;
11346;SDS011;5728;42.722;23.258;2023-03-23T12:15:47;9.02;;;6.72;;
11346;SDS011;5728;42.722;23.258;2023-03-23T12:18:22;9.07;;;6.28;;
11346;SDS011;5728;42.722;23.258;2023-03-23T12:20:59;5.88;;;5.28;;
11346;SDS011;5728;42.722;23.258;2023-03-23T12:23:33;6.10;;;4.97;;
11346;SDS011;5728;42.722;23.258;2023-03-23T12:26:13;5.93;;;4.68;;
11346;SDS011;5728;42.722;23.258;2023-03-23T12:31:46;6.70;;;5.40;;
11346;SDS011;5728;42.722;23.258;2023-03-23T12:34:22;7.47;;;4.90;;
11346;SDS011;5728;42.722;23.258;2023-03-23T12:37:03;5.85;;;5.10;;
11346;SDS011;5728;42.722;23.258;2023-03-23T12:39:49;5.35;;;4.47;;
11346;SDS011;5728;42.722;23.258;2023-03-23T12:42:26;7.47;;;4.63;;
11346;SDS011;5728;42.722;23.258;2023-03-23T12:45:04;7.20;;;4.75;;
11346;SDS011;5728;42.722;23.258;2023-03-23T12:47:39;5.78;;;5.18;;
11346;SDS011;5728;42.722;23.258;2023-03-23T12:50:11;8.85;;;4.47;;
11346;SDS011;5728;42.722;23.258;2023-03-23T12:52:45;5.07;;;4.57;;
11346;SDS011;5728;42.722;23.258;2023-03-23T12:55:18;5.63;;;4.35;;
11346;SDS011;5728;42.722;23.258;2023-03-23T12:57:52;4.82;;;4.03;;
11346;SDS011;5728;42.722;23.258;2023-03-23T13:00:25;7.68;;;5.03;;
11346;SDS011;5728;42.722;23.258;2023-03-23T13:02:57;5.45;;;4.70;;
11346;SDS011;5728;42.722;23.258;2023-03-23T13:05:29;5.88;;;4.63;;
11346;SDS011;5728;42.722;23.258;2023-03-23T13:08:04;5.15;;;4.30;;
11346;SDS011;5728;42.722;23.258;2023-03-23T13:10:33;7.68;;;4.90;;
11346;SDS011;5728;42.722;23.258;2023-03-23T13:13:08;6.18;;;3.72;;
11346;SDS011;5728;42.722;23.258;2023-03-23T13:15:41;9.73;;;4.72;;
11346;SDS011;5728;42.722;23.258;2023-03-23T13:18:16;7.40;;;4.78;;
11346;SDS011;5728;42.722;23.258;2023-03-23T13:20:55;4.82;;;4.05;;
11346;SDS011;5728;42.722;23.258;2023-03-23T13:23:28;5.55;;;4.57;;
11346;SDS011;5728;42.722;23.258;2023-03-23T13:26:02;4.43;;;3.97;;
11346;SDS011;5728;42.722;23.258;2023-03-23T13:28:43;8.32;;;4.93;;
11346;SDS011;5728;42.722;23.258;2023-03-23T13:31:17;6.03;;;5.20;;
11346;SDS011;5728;42.722;23.258;2023-03-23T13:33:51;6.60;;;4.38;;
11346;SDS011;5728;42.722;23.258;2023-03-23T13:36:30;8.38;;;4.50;;
11346;SDS011;5728;42.722;23.258;2023-03-23T13:38:58;6.72;;;4.28;;
11346;SDS011;5728;42.722;23.258;2023-03-23T13:41:27;6.95;;;4.45;;
11346;SDS011;5728;42.722;23.258;2023-03-23T13:44:07;4.68;;;4.20;;
11346;SDS011;5728;42.722;23.258;2023-03-23T13:46:53;6.78;;;4.50;;
11346;SDS011;5728;42.722;23.258;2023-03-23T13:49:22;6.18;;;4.38;;
11346;SDS011;5728;42.722;23.258;2023-03-23T13:52:01;5.43;;;4.30;;
11346;SDS011;5728;42.722;23.258;2023-03-23T13:54:43;4.18;;;3.67;;
11346;SDS011;5728;42.722;23.258;2023-03-23T13:57:25;7.90;;;4.35;;
11346;SDS011;5728;42.722;23.258;2023-03-23T14:00:09;6.85;;;4.22;;
11346;SDS011;5728;42.722;23.258;2023-03-23T14:03:01;7.07;;;5.03;;
11346;SDS011;5728;42.722;23.258;2023-03-23T14:05:34;6.10;;;5.03;;
11346;SDS011;5728;42.722;23.258;2023-03-23T14:08:03;6.60;;;4.82;;
11346;SDS011;5728;42.722;23.258;2023-03-23T14:10:39;6.65;;;4.53;;
11346;SDS011;5728;42.722;23.258;2023-03-23T14:13:11;12.68;;;4.63;;
11346;SDS011;5728;42.722;23.258;2023-03-23T14:15:45;8.00;;;4.80;;
11346;SDS011;5728;42.722;23.258;2023-03-23T14:18:22;7.85;;;4.05;;
11346;SDS011;5728;42.722;23.258;2023-03-23T14:20:52;4.55;;;3.75;;
11346;SDS011;5728;42.722;23.258;2023-03-23T14:23:19;5.25;;;4.35;;
11346;SDS011;5728;42.722;23.258;2023-03-23T14:25:54;6.15;;;4.65;;
11346;SDS011;5728;42.722;23.258;2023-03-23T14:28:23;5.00;;;4.30;;
11346;SDS011;5728;42.722;23.258;2023-03-23T14:30:54;6.13;;;4.03;;
11346;SDS011;5728;42.722;23.258;2023-03-23T14:33:22;4.85;;;4.30;;
11346;SDS011;5728;42.722;23.258;2023-03-23T14:35:52;5.25;;;4.28;;
11346;SDS011;5728;42.722;23.258;2023-03-23T14:38:20;5.88;;;4.47;;
11346;SDS011;5728;42.722;23.258;2023-03-23T14:40:49;5.55;;;4.05;;
11346;SDS011;5728;42.722;23.258;2023-03-23T14:43:17;9.88;;;4.13;;
11346;SDS011;5728;42.722;23.258;2023-03-23T14:45:47;6.03;;;4.30;;
11346;SDS011;5728;42.722;23.258;2023-03-23T14:48:19;9.13;;;4.50;;
11346;SDS011;5728;42.722;23.258;2023-03-23T14:50:49;6.82;;;5.10;;
11346;SDS011;5728;42.722;23.258;2023-03-23T14:53:18;5.35;;;4.65;;
11346;SDS011;5728;42.722;23.258;2023-03-23T14:55:46;4.88;;;4.07;;
11346;SDS011;5728;42.722;23.258;2023-03-23T14:58:14;12.95;;;4.45;;
11346;SDS011;5728;42.722;23.258;2023-03-23T15:00:43;8.30;;;4.63;;
11346;SDS011;5728;42.722;23.258;2023-03-23T15:03:15;8.82;;;4.55;;
11346;SDS011;5728;42.722;23.258;2023-03-23T15:05:46;6.55;;;5.18;;
11346;SDS011;5728;42.722;23.258;2023-03-23T15:08:15;5.22;;;4.40;;